Time;durP1;ratioP1;P1;durP2;ratioP2;P2;SDS_P1;SDS_P2;PMS_P1;PMS_P2;Temp;Humidity;BMP_temperature;BMP_pressure;BME280_temperature;BME280_humidity;BME280_pressure;Samples;Min_cycle;Max_cycle;Signal;HPM_P1;HPM_P2
2022/01/19 00:02:08;;;;;;;17.20;5.60;;;;;;;-2.38;98.96;101090.70;103694;1300;25380;-25
2022/01/19 00:04:34;;;;;;;20.70;5.90;;;;;;;-2.42;98.68;101084.75;103535;1300;24210;-25
2022/01/19 00:07:00;;;;;;;46.40;7.10;;;;;;;-2.40;99.07;101080.09;103558;1300;24224;-29
2022/01/19 00:09:26;;;;;;;32.00;6.10;;;;;;;-2.34;98.25;101084.71;103552;1300;24328;-27
2022/01/19 00:11:52;;;;;;;20.10;6.60;;;;;;;-2.11;97.93;101076.94;103633;1300;24214;-29
2022/01/19 00:14:18;;;;;;;20.10;4.80;;;;;;;-2.19;97.81;101074.87;103471;1300;24338;-25
2022/01/19 00:16:44;;;;;;;14.90;5.60;;;;;;;-2.20;97.95;101074.75;103562;1300;24301;-27
2022/01/19 00:19:10;;;;;;;22.50;6.40;;;;;;;-2.13;97.79;101071.79;103545;1300;24186;-29
2022/01/19 00:21:36;;;;;;;21.70;5.60;;;;;;;-2.14;98.03;101066.88;103646;1300;24273;-31
2022/01/19 00:24:01;;;;;;;15.60;5.60;;;;;;;-1.95;97.96;101061.77;103508;1300;24186;-27
2022/01/19 00:26:28;;;;;;;28.00;7.10;;;;;;;-2.00;97.53;101056.55;103536;1300;24272;-31
2022/01/19 00:28:55;;;;;;;16.90;5.60;;;;;;;-1.91;97.85;101049.27;103577;1302;24176;-30
2022/01/19 00:31:21;;;;;;;19.80;5.80;;;;;;;-1.94;98.13;101043.27;103599;1301;24343;-29
2022/01/19 00:33:46;;;;;;;32.50;7.40;;;;;;;-1.87;97.93;101048.00;103515;1300;22528;-28
2022/01/19 00:36:12;;;;;;;16.00;6.10;;;;;;;-1.89;97.83;101047.23;103472;1300;22521;-29
2022/01/19 00:38:38;;;;;;;24.70;8.00;;;;;;;-1.66;97.78;101033.29;103570;1301;24431;-25
2022/01/19 00:41:04;;;;;;;18.60;7.30;;;;;;;-1.55;96.65;101035.14;103566;1302;24312;-29
2022/01/19 00:43:30;;;;;;;39.60;8.40;;;;;;;-1.60;96.24;101031.02;103503;1302;24345;-32
2022/01/19 00:45:56;;;;;;;17.20;4.70;;;;;;;-1.65;96.49;101029.86;103609;1301;24185;-29
2022/01/19 00:48:22;;;;;;;27.80;6.50;;;;;;;-1.58;96.15;101044.27;103502;1300;22515;-25
2022/01/19 00:50:48;;;;;;;20.60;7.40;;;;;;;-1.54;95.66;101049.33;103497;1302;24271;-29
2022/01/19 00:53:14;;;;;;;14.80;4.80;;;;;;;-1.54;95.70;101046.36;103539;1302;24278;-29
2022/01/19 00:55:40;;;;;;;15.60;6.90;;;;;;;-1.45;94.78;101048.01;103573;1300;24215;-29
2022/01/19 00:58:06;;;;;;;32.30;7.30;;;;;;;-1.34;94.52;101042.16;103506;1302;24190;-29
2022/01/19 01:00:32;;;;;;;30.70;8.70;;;;;;;-1.41;93.24;101042.33;103544;1301;24305;-31
2022/01/19 01:02:59;;;;;;;27.10;9.20;;;;;;;-1.34;93.12;101039.02;103529;1302;23992;-31
2022/01/19 01:05:25;;;;;;;27.50;7.60;;;;;;;-1.54;93.82;101035.99;103560;1302;24198;-29
2022/01/19 01:07:51;;;;;;;22.20;7.90;;;;;;;-1.49;94.16;101032.74;103552;1302;24392;-31
2022/01/19 01:10:18;;;;;;;21.70;6.40;;;;;;;-1.45;93.67;101033.41;103516;1302;24305;-29
2022/01/19 01:15:28;;;;;;;17.70;6.00;;;;;;;-1.63;94.19;101026.27;103511;1302;22632;-25
2022/01/19 01:20:25;;;;;;;39.60;9.10;;;;;;;-1.51;94.26;101020.55;103529;1300;23870;-29
2022/01/19 01:22:51;;;;;;;33.10;10.10;;;;;;;-1.77;95.09;101013.64;103600;1300;24187;-27
2022/01/19 01:25:17;;;;;;;28.20;7.80;;;;;;;-1.66;95.51;101000.07;103510;1300;24355;-27
2022/01/19 01:27:43;;;;;;;21.00;7.40;;;;;;;-1.60;95.08;100990.27;103486;1300;24214;-25
2022/01/19 01:30:09;;;;;;;38.80;10.40;;;;;;;-1.35;93.96;100989.14;103503;1300;24189;-30
2022/01/19 01:32:35;;;;;;;22.60;8.20;;;;;;;-1.24;93.06;100986.24;103532;1302;24301;-25
2022/01/19 01:35:01;;;;;;;41.30;9.30;;;;;;;-1.12;91.83;100979.45;103509;1302;24297;-28
2022/01/19 01:37:28;;;;;;;33.70;9.50;;;;;;;-1.28;92.46;100975.58;103566;1300;25034;-27
2022/01/19 01:39:54;;;;;;;29.60;9.40;;;;;;;-1.44;92.83;100973.28;103581;1302;24355;-30
2022/01/19 01:42:20;;;;;;;25.70;10.30;;;;;;;-1.60;93.76;100968.85;103513;1300;24308;-26
2022/01/19 01:44:50;;;;;;;25.40;10.00;;;;;;;-1.79;95.42;100956.85;103628;1302;24252;-30
2022/01/19 01:47:18;;;;;;;17.70;7.40;;;;;;;-1.77;95.95;100955.02;103574;1302;23066;-25
2022/01/19 01:53:26;;;;;;;14.90;6.80;;;;;;;-1.74;96.55;100949.23;103483;1302;24246;-25
2022/01/19 01:54:59;;;;;;;26.10;7.60;;;;;;;-1.32;93.55;100924.13;103546;1300;24370;-24
2022/01/19 01:57:25;;;;;;;25.80;8.40;;;;;;;-1.26;93.15;100918.71;103582;1300;24162;-27
2022/01/19 01:59:51;;;;;;;22.20;7.30;;;;;;;-1.52;94.16;100910.29;103412;1300;24205;-27
2022/01/19 02:02:17;;;;;;;17.40;5.90;;;;;;;-1.58;95.15;100911.83;103531;1301;22509;-29
2022/01/19 02:04:44;;;;;;;34.70;8.00;;;;;;;-1.57;95.47;100913.88;103551;1301;22569;-29
2022/01/19 02:09:39;;;;;;;25.50;10.00;;;;;;;-1.50;96.00;100918.23;103519;1302;24175;-29
2022/01/19 02:22:05;;;;;;;12.40;7.30;;;;;;;-0.78;92.32;100902.70;103539;1302;24308;-27
2022/01/19 02:24:41;;;;;;;18.50;7.20;;;;;;;-1.13;92.99;100902.52;103549;1301;24222;-30
2022/01/19 02:28:53;;;;;;;65.70;9.70;;;;;;;-1.30;93.85;100901.36;103525;1300;24198;-27
2022/01/19 02:42:17;;;;;;;32.60;9.90;;;;;;;-1.07;94.56;100873.92;103594;1302;24211;-29
2022/01/19 02:49:55;;;;;;;31.00;8.80;;;;;;;-0.95;94.33;100861.66;103501;1302;24345;-29
2022/01/19 02:52:22;;;;;;;24.30;9.00;;;;;;;-0.98;93.74;100862.66;103534;1302;24325;-29
2022/01/19 02:54:49;;;;;;;28.30;9.20;;;;;;;-1.24;95.24;100864.49;103572;1302;24182;-25
2022/01/19 02:57:15;;;;;;;21.80;7.80;;;;;;;-1.18;95.79;100857.88;103525;1301;24137;-29
2022/01/19 03:09:39;;;;;;;25.40;7.30;;;;;;;-0.98;94.93;100815.73;103468;1301;24419;-30
2022/01/19 03:12:06;;;;;;;36.30;7.70;;;;;;;-0.79;94.63;100814.27;103604;1300;23131;-25
2022/01/19 03:14:32;;;;;;;27.10;9.80;;;;;;;-0.88;94.32;100805.65;103460;1302;24254;-29
2022/01/19 03:16:58;;;;;;;13.80;6.10;;;;;;;-0.67;94.03;100804.12;103492;1300;24273;-25
2022/01/19 03:19:26;;;;;;;12.10;6.60;;;;;;;-0.75;94.04;100801.95;103526;1302;24331;-28
2022/01/19 03:21:52;;;;;;;18.30;7.90;;;;;;;-0.51;93.16;100801.02;103532;1300;24263;-27
2022/01/19 03:24:19;;;;;;;23.10;7.70;;;;;;;-0.78;93.59;100797.16;103531;1300;24256;-27
2022/01/19 03:26:45;;;;;;;16.20;5.50;;;;;;;-0.77;93.74;100794.86;103549;1302;24178;-27
2022/01/19 03:29:11;;;;;;;25.10;6.90;;;;;;;-0.86;94.69;100797.63;103530;1301;24451;-25
2022/01/19 03:31:37;;;;;;;17.60;7.60;;;;;;;-0.71;94.27;100793.09;103542;1301;22726;-30
2022/01/19 03:34:03;;;;;;;30.10;8.00;;;;;;;-0.60;93.93;100797.53;103500;1301;24366;-25
2022/01/19 03:36:29;;;;;;;23.40;8.90;;;;;;;-0.81;94.16;100801.73;103502;1300;24474;-29
2022/01/19 03:38:54;;;;;;;18.50;8.50;;;;;;;-0.76;94.88;100793.19;103561;1302;24266;-25
2022/01/19 03:41:20;;;;;;;21.20;7.50;;;;;;;-0.28;92.33;100784.85;103580;1302;24205;-25
2022/01/19 03:43:46;;;;;;;23.20;8.00;;;;;;;-0.31;91.21;100785.05;103538;1302;22520;-27
2022/01/19 03:46:14;;;;;;;24.20;7.40;;;;;;;-0.43;92.14;100780.52;103463;1300;24291;-25
2022/01/19 03:48:46;;;;;;;17.10;7.90;;;;;;;-0.73;92.83;100777.56;103569;1302;24410;-26
2022/01/19 03:51:12;;;;;;;26.20;7.50;;;;;;;-0.84;93.99;100774.16;103497;1301;22986;-30
2022/01/19 03:53:38;;;;;;;18.90;6.30;;;;;;;-0.54;93.31;100768.13;103586;1300;24226;-26
2022/01/19 03:56:04;;;;;;;15.70;6.70;;;;;;;-0.40;91.88;100764.84;103559;1300;24200;-25
2022/01/19 03:58:30;;;;;;;13.70;6.60;;;;;;;-0.21;91.23;100764.94;103461;1302;24289;-29
2022/01/19 04:00:58;;;;;;;30.50;6.40;;;;;;;-0.20;90.32;100763.26;103591;1302;24474;-28
2022/01/19 04:08:40;;;;;;;23.40;6.50;;;;;;;-0.28;91.45;100743.34;103557;1300;22641;-26
2022/01/19 04:11:06;;;;;;;26.70;7.40;;;;;;;-0.45;91.21;100736.65;102964;1302;890571;-25
2022/01/19 04:13:44;;;;;;;14.00;6.40;;;;;;;-0.31;90.71;100728.23;103579;1300;24247;-25
2022/01/19 04:16:11;;;;;;;17.90;4.60;;;;;;;-0.28;90.74;100722.21;103528;1300;24300;-30
2022/01/19 04:18:37;;;;;;;15.40;6.40;;;;;;;-0.22;90.04;100718.14;103529;1301;24189;-25
2022/01/19 04:21:03;;;;;;;29.00;7.20;;;;;;;-0.56;91.20;100715.81;103565;1302;22902;-27
2022/01/19 04:23:28;;;;;;;23.60;5.20;;;;;;;-0.33;91.23;100710.03;103556;1301;25894;-26
2022/01/19 04:25:54;;;;;;;10.40;5.60;;;;;;;-0.33;90.80;100712.88;103523;1300;22512;-30
2022/01/19 04:28:20;;;;;;;12.90;3.90;;;;;;;-0.53;91.65;100714.09;103540;1303;22629;-28
2022/01/19 04:30:46;;;;;;;14.70;6.00;;;;;;;-0.34;91.28;100713.80;103538;1300;24330;-28
2022/01/19 04:33:17;;;;;;;28.10;6.70;;;;;;;-0.54;91.59;100711.14;103504;1302;22732;-25
2022/01/19 04:35:47;;;;;;;20.40;6.40;;;;;;;-0.54;92.03;100710.98;103553;1300;23962;-29
2022/01/19 04:38:56;;;;;;;19.00;5.90;;;;;;;-0.37;91.39;100703.59;103532;1300;22872;-25
2022/01/19 05:05:54;;;;;;;7.80;3.40;;;;;;;-0.21;90.84;100693.79;103513;1301;24354;-27
2022/01/19 05:08:40;;;;;;;10.60;5.00;;;;;;;-0.22;91.01;100687.02;103429;1302;22585;-26
2022/01/19 05:13:36;;;;;;;14.60;6.50;;;;;;;-0.22;90.45;100688.02;103496;1300;22638;-25
2022/01/19 05:16:02;;;;;;;26.80;7.10;;;;;;;-0.00;89.80;100684.75;103599;1300;24221;-30
2022/01/19 05:18:28;;;;;;;9.10;5.20;;;;;;;-0.19;89.43;100686.11;103582;1302;24254;-30
2022/01/19 05:20:54;;;;;;;14.30;5.70;;;;;;;-0.07;90.00;100680.61;103554;1300;24206;-30
2022/01/19 05:23:20;;;;;;;9.30;4.30;;;;;;;-0.02;88.83;100679.77;103525;1303;24210;-27
2022/01/19 05:25:46;;;;;;;8.70;3.30;;;;;;;0.06;88.73;100681.04;103724;1300;24376;-25
2022/01/19 05:28:13;;;;;;;19.90;5.60;;;;;;;-0.07;88.76;100675.85;103605;1300;24169;-25
2022/01/19 05:30:39;;;;;;;15.20;5.60;;;;;;;-0.29;90.12;100678.62;103582;1300;24229;-29
2022/01/19 05:33:04;;;;;;;8.00;4.10;;;;;;;-0.11;89.69;100677.36;103599;1300;22533;-25
2022/01/19 05:35:30;;;;;;;12.50;6.00;;;;;;;-0.21;90.16;100670.72;103641;1300;24191;-29
2022/01/19 05:37:56;;;;;;;15.90;7.10;;;;;;;0.05;88.85;100671.88;103667;1300;24258;-29
2022/01/19 05:40:22;;;;;;;13.80;4.40;;;;;;;-0.13;89.26;100668.12;103604;1300;24317;-29
2022/01/19 05:42:49;;;;;;;10.10;5.30;;;;;;;-0.01;89.43;100666.51;103623;1300;24301;-25
2022/01/19 05:45:16;;;;;;;13.00;2.60;;;;;;;-0.08;89.23;100664.45;103616;1300;22701;-29
2022/01/19 05:47:42;;;;;;;20.90;6.50;;;;;;;0.12;88.88;100660.73;103563;1300;24257;-26
2022/01/19 05:50:08;;;;;;;14.70;4.10;;;;;;;0.08;88.96;100657.95;103329;1300;24234;-29
2022/01/19 05:52:34;;;;;;;27.80;5.50;;;;;;;0.26;87.92;100647.66;103558;1300;24245;-25
2022/01/19 05:55:00;;;;;;;13.50;5.70;;;;;;;0.23;87.73;100650.52;103520;1300;24214;-25
2022/01/19 05:57:26;;;;;;;13.60;7.20;;;;;;;0.12;87.98;100654.71;103552;1300;24247;-31
2022/01/19 05:59:52;;;;;;;14.50;5.60;;;;;;;0.08;88.84;100652.89;103434;1302;24321;-29
2022/01/19 06:02:17;;;;;;;10.90;4.40;;;;;;;0.15;88.48;100646.25;103582;1300;24179;-30
2022/01/19 06:04:43;;;;;;;15.00;6.90;;;;;;;0.03;88.85;100646.17;103428;1303;24292;-30
2022/01/19 06:07:09;;;;;;;16.10;5.40;;;;;;;-0.13;89.43;100645.79;103613;1300;24303;-26
2022/01/19 06:09:48;;;;;;;5.70;2.70;;;;;;;-0.27;90.70;100639.98;103606;1300;24328;-30
2022/01/19 06:12:14;;;;;;;22.50;6.30;;;;;;;-0.21;90.57;100629.52;103620;1300;24170;-32
2022/01/19 06:14:41;;;;;;;13.60;6.00;;;;;;;-0.08;89.93;100624.66;103585;1299;24274;-30
2022/01/19 06:17:08;;;;;;;21.50;5.70;;;;;;;-0.33;91.16;100621.35;103611;1300;24249;-25
2022/01/19 06:19:34;;;;;;;11.90;6.50;;;;;;;-0.36;91.77;100618.18;103552;1300;24325;-25
2022/01/19 06:22:00;;;;;;;9.70;4.40;;;;;;;-0.35;91.75;100618.68;103682;1300;24367;-25
2022/01/19 06:24:27;;;;;;;10.70;5.80;;;;;;;-0.13;91.41;100612.52;103618;1300;24349;-29
2022/01/19 06:26:53;;;;;;;12.40;5.60;;;;;;;-0.00;90.16;100609.38;103596;1300;24418;-25
2022/01/19 06:29:19;;;;;;;29.20;6.60;;;;;;;-0.33;91.47;100606.95;103466;1300;22515;-30
2022/01/19 06:31:45;;;;;;;13.40;6.70;;;;;;;-0.36;92.38;100603.61;103484;1299;24260;-30
2022/01/19 06:34:11;;;;;;;11.10;5.10;;;;;;;-0.35;92.47;100603.19;103551;1300;22573;-29
2022/01/19 06:36:37;;;;;;;10.70;4.90;;;;;;;-0.22;92.54;100594.79;103633;1300;24228;-27
2022/01/19 06:39:03;;;;;;;11.50;6.00;;;;;;;-0.23;92.54;100588.16;103545;1300;24359;-26
2022/01/19 06:41:29;;;;;;;12.00;7.00;;;;;;;0.07;90.75;100591.49;103642;1300;24150;-30
2022/01/19 06:43:55;;;;;;;11.40;5.20;;;;;;;0.13;90.21;100594.27;103525;1303;24233;-29
2022/01/19 06:46:21;;;;;;;8.00;4.60;;;;;;;0.00;90.50;100597.41;103520;1303;24327;-30
2022/01/19 06:48:46;;;;;;;10.40;4.00;;;;;;;0.02;90.57;100590.06;103613;1300;22511;-26
2022/01/19 06:51:12;;;;;;;15.40;6.50;;;;;;;0.08;90.11;100587.19;103667;1300;24207;-30
2022/01/19 06:53:38;;;;;;;7.90;4.50;;;;;;;0.05;90.08;100583.02;103597;1300;24209;-26
2022/01/19 06:56:04;;;;;;;19.30;7.90;;;;;;;0.05;90.54;100574.59;103655;1300;22689;-30
2022/01/19 06:58:30;;;;;;;14.50;5.70;;;;;;;0.13;90.62;100574.73;103558;1300;24444;-28
2022/01/19 07:00:56;;;;;;;6.10;3.00;;;;;;;0.02;90.97;100572.42;103507;1303;24260;-30
2022/01/19 07:03:22;;;;;;;26.30;4.90;;;;;;;0.28;89.68;100567.95;103634;1300;24306;-28
2022/01/19 07:05:48;;;;;;;16.60;6.10;;;;;;;0.32;89.23;100562.34;103530;1300;24213;-31
2022/01/19 07:08:14;;;;;;;15.00;6.00;;;;;;;0.12;89.56;100555.04;103609;1300;24236;-25
2022/01/19 07:10:41;;;;;;;15.70;5.00;;;;;;;-0.04;90.85;100545.55;103699;1300;22520;-25
2022/01/19 07:13:07;;;;;;;10.90;5.50;;;;;;;-0.09;91.91;100537.23;103466;1300;24181;-26
2022/01/19 07:15:33;;;;;;;20.80;5.90;;;;;;;-0.06;92.27;100533.52;103548;1300;24414;-30
2022/01/19 07:17:59;;;;;;;14.70;6.10;;;;;;;-0.03;92.37;100534.92;103637;1300;24192;-25
2022/01/19 07:20:25;;;;;;;13.70;6.20;;;;;;;-0.00;92.49;100533.69;103578;1300;24224;-26
2022/01/19 07:22:51;;;;;;;14.00;5.50;;;;;;;0.09;91.84;100530.42;103509;1300;24214;-26
2022/01/19 07:25:18;;;;;;;9.20;5.00;;;;;;;0.14;91.37;100537.86;103551;1300;22792;-26
2022/01/19 07:27:44;;;;;;;9.50;5.00;;;;;;;0.05;91.67;100540.23;103607;1300;24308;-30
2022/01/19 07:30:10;;;;;;;16.50;8.20;;;;;;;0.17;91.52;100541.71;103509;1302;24345;-30
2022/01/19 07:32:37;;;;;;;13.60;5.20;;;;;;;0.08;91.67;100547.40;103535;1300;24331;-25
2022/01/19 07:35:04;;;;;;;15.50;6.30;;;;;;;0.10;91.85;100545.36;103532;1302;24235;-29
2022/01/19 07:37:30;;;;;;;10.50;5.90;;;;;;;0.25;91.15;100547.66;103507;1300;23191;-30
2022/01/19 07:39:57;;;;;;;8.50;3.80;;;;;;;0.41;89.65;100543.23;103521;1300;24269;-25
2022/01/19 07:42:24;;;;;;;7.80;3.40;;;;;;;0.28;89.92;100539.91;103545;1302;24425;-27
2022/01/19 07:44:50;;;;;;;13.30;5.70;;;;;;;0.19;90.91;100540.36;103573;1300;24331;-26
2022/01/19 07:47:17;;;;;;;14.10;5.80;;;;;;;0.30;90.51;100537.27;103479;1302;24362;-29
2022/01/19 07:49:43;;;;;;;16.70;6.30;;;;;;;0.31;90.26;100531.81;103495;1302;24253;-25
2022/01/19 07:52:09;;;;;;;11.40;3.30;;;;;;;0.55;88.73;100531.58;103535;1300;24238;-30
2022/01/19 07:54:34;;;;;;;9.60;5.00;;;;;;;0.36;89.43;100523.15;103439;1302;24165;-30
2022/01/19 07:57:00;;;;;;;11.00;3.80;;;;;;;0.34;89.67;100517.99;103560;1300;24209;-30
2022/01/19 07:59:26;;;;;;;13.70;5.80;;;;;;;0.47;89.65;100509.00;103426;1302;22636;-27
2022/01/19 08:01:54;;;;;;;8.30;3.20;;;;;;;0.39;89.85;100502.17;103585;1302;24221;-29
2022/01/19 08:04:20;;;;;;;13.70;4.70;;;;;;;0.43;89.65;100501.33;103546;1300;24230;-30
2022/01/19 08:06:47;;;;;;;13.80;6.60;;;;;;;0.42;90.17;100495.76;103636;1300;23998;-26
2022/01/19 08:09:13;;;;;;;15.20;5.90;;;;;;;0.48;90.15;100484.66;103524;1300;24189;-25
2022/01/19 08:11:39;;;;;;;7.50;4.30;;;;;;;0.53;89.77;100482.52;103483;1300;24431;-27
2022/01/19 08:14:05;;;;;;;18.80;5.80;;;;;;;0.80;88.68;100486.68;103540;1301;24453;-24
2022/01/19 08:16:31;;;;;;;19.30;5.70;;;;;;;0.73;88.07;100484.83;103553;1300;22514;-27
2022/01/19 08:18:57;;;;;;;14.60;5.20;;;;;;;0.61;88.82;100485.72;103493;1300;24378;-25
2022/01/19 08:21:23;;;;;;;11.10;5.30;;;;;;;0.57;89.73;100481.77;103537;1300;24263;-32
2022/01/19 08:23:48;;;;;;;13.00;6.20;;;;;;;0.69;89.88;100481.59;103533;1300;22523;-29
2022/01/19 08:26:16;;;;;;;9.10;4.40;;;;;;;0.90;88.44;100473.42;103526;1300;24329;-25
2022/01/19 08:28:42;;;;;;;10.90;3.70;;;;;;;0.93;87.16;100475.70;103576;1302;25243;-27
2022/01/19 08:31:08;;;;;;;16.20;6.10;;;;;;;0.67;88.55;100472.39;103537;1300;24097;-30
2022/01/19 08:33:33;;;;;;;13.50;5.00;;;;;;;0.74;88.39;100468.55;103581;1302;24367;-29
2022/01/19 08:35:59;;;;;;;8.70;3.80;;;;;;;0.87;88.22;100471.35;103541;1300;24225;-31
2022/01/19 08:38:25;;;;;;;10.40;5.30;;;;;;;0.80;87.95;100474.16;103627;1300;24305;-26
2022/01/19 08:40:51;;;;;;;9.70;4.40;;;;;;;1.10;87.14;100465.51;103540;1302;24272;-25
2022/01/19 08:43:17;;;;;;;6.80;3.10;;;;;;;1.00;86.96;100455.63;103530;1300;24256;-30
2022/01/19 08:45:43;;;;;;;12.90;5.30;;;;;;;1.18;86.18;100453.10;103517;1300;22765;-25
2022/01/19 08:48:09;;;;;;;7.50;3.80;;;;;;;1.05;87.11;100448.41;103469;1300;22506;-25
2022/01/19 08:50:35;;;;;;;13.50;3.70;;;;;;;1.03;87.28;100438.84;103478;1300;24305;-29
2022/01/19 08:53:01;;;;;;;10.00;4.70;;;;;;;0.98;88.50;100441.65;103529;1300;24233;-29
2022/01/19 08:55:29;;;;;;;15.40;5.30;;;;;;;1.03;89.09;100446.61;103602;1300;24185;-25
2022/01/19 08:57:55;;;;;;;6.40;3.20;;;;;;;1.26;88.49;100447.55;103569;1300;22880;-25
2022/01/19 09:00:21;;;;;;;9.10;4.40;;;;;;;1.24;87.72;100442.80;103544;1301;24189;-25
2022/01/19 09:02:47;;;;;;;13.10;4.10;;;;;;;1.22;88.62;100436.39;103445;1301;24207;-25
2022/01/19 09:05:14;;;;;;;11.80;5.20;;;;;;;1.30;88.86;100429.48;103562;1303;24431;-24
2022/01/19 09:07:40;;;;;;;10.40;4.70;;;;;;;1.39;89.00;100421.91;103553;1300;24442;-25
2022/01/19 09:10:07;;;;;;;7.60;3.20;;;;;;;1.45;89.06;100421.49;103584;1300;24230;-24
2022/01/19 09:12:34;;;;;;;9.00;3.90;;;;;;;1.55;88.93;100419.31;103530;1302;24315;-25
2022/01/19 09:15:01;;;;;;;8.90;3.90;;;;;;;1.62;88.23;100422.68;103542;1300;24178;-29
2022/01/19 09:17:27;;;;;;;10.30;3.90;;;;;;;1.75;87.10;100424.36;103553;1300;24303;-25
2022/01/19 09:19:52;;;;;;;6.10;3.20;;;;;;;1.75;86.59;100417.33;103463;1300;24217;-31
2022/01/19 09:22:18;;;;;;;5.40;4.00;;;;;;;1.91;85.02;100414.48;103501;1301;24438;-31
2022/01/19 09:24:44;;;;;;;13.50;3.70;;;;;;;1.60;85.84;100413.86;103490;1301;24189;-25
2022/01/19 09:27:10;;;;;;;12.30;4.20;;;;;;;1.84;85.15;100411.52;103515;1302;24406;-31
2022/01/19 09:29:38;;;;;;;8.60;3.70;;;;;;;2.08;83.44;100410.54;103463;1301;24259;-25
2022/01/19 09:32:08;;;;;;;8.90;4.90;;;;;;;2.00;81.53;100409.42;103604;1300;22971;-30
2022/01/19 09:34:34;;;;;;;7.30;3.70;;;;;;;1.74;83.66;100410.17;103482;1302;24216;-25
2022/01/19 09:37:00;;;;;;;4.50;3.00;;;;;;;1.79;83.33;100406.58;103582;1302;22516;-29
2022/01/19 09:39:26;;;;;;;8.80;3.90;;;;;;;1.80;83.60;100401.53;103567;1300;24239;-25
2022/01/19 09:41:53;;;;;;;10.20;5.10;;;;;;;1.61;84.07;100399.09;103597;1301;24613;-30
2022/01/19 09:44:20;;;;;;;7.20;3.20;;;;;;;1.69;84.12;100394.10;103515;1300;24387;-29
2022/01/19 09:46:46;;;;;;;9.80;4.10;;;;;;;1.54;85.54;100392.20;103545;1301;24304;-27
2022/01/19 09:49:12;;;;;;;11.20;3.90;;;;;;;1.65;85.11;100394.23;103550;1300;24419;-25
2022/01/19 09:51:40;;;;;;;11.80;3.80;;;;;;;1.68;84.78;100387.24;103546;1300;24432;-29
2022/01/19 09:54:06;;;;;;;8.00;4.00;;;;;;;1.63;85.96;100381.69;103475;1300;24313;-29
2022/01/19 09:56:32;;;;;;;8.50;4.20;;;;;;;1.78;85.40;100377.73;103538;1300;24223;-25
2022/01/19 09:58:58;;;;;;;9.20;4.40;;;;;;;1.84;84.69;100373.91;103642;1301;24177;-28
2022/01/19 10:01:24;;;;;;;14.60;5.50;;;;;;;1.76;85.23;100375.00;103520;1302;24336;-29
2022/01/19 10:03:50;;;;;;;14.40;4.60;;;;;;;1.78;85.44;100369.80;103521;1300;24483;-29
2022/01/19 10:06:18;;;;;;;15.50;4.70;;;;;;;1.79;85.63;100365.23;103586;1300;24490;-27
2022/01/19 10:08:46;;;;;;;15.40;5.40;;;;;;;1.84;85.73;100359.75;103556;1301;24248;-25
2022/01/19 10:11:16;;;;;;;8.00;5.30;;;;;;;1.79;85.50;100352.39;103522;1300;24332;-25
2022/01/19 10:18:43;;;;;;;14.30;6.60;;;;;;;1.96;85.45;100346.16;103552;1299;24342;-29
2022/01/19 10:23:40;;;;;;;11.10;6.10;;;;;;;2.01;85.51;100337.77;103604;1302;24225;-25
2022/01/19 10:26:09;;;;;;;15.70;6.30;;;;;;;2.14;85.23;100327.46;103510;1299;24354;-25
2022/01/19 10:28:42;;;;;;;9.50;6.30;;;;;;;2.34;84.17;100320.20;103601;1300;24399;-29
2022/01/19 10:31:16;;;;;;;15.70;7.80;;;;;;;2.25;84.70;100316.51;103561;1300;22807;-26
2022/01/19 10:33:41;;;;;;;25.70;7.40;;;;;;;2.23;85.55;100314.02;103538;1300;22634;-29
2022/01/19 10:36:07;;;;;;;19.40;7.60;;;;;;;2.33;85.80;100308.63;103597;1300;24223;-26
2022/01/19 10:38:33;;;;;;;15.10;7.50;;;;;;;2.40;85.37;100301.20;103457;1302;24242;-26
2022/01/19 10:41:02;;;;;;;15.20;6.70;;;;;;;2.50;85.88;100299.70;103511;1302;22572;-30
2022/01/19 10:43:29;;;;;;;20.80;7.90;;;;;;;2.59;85.37;100289.39;103537;1300;24333;-26
2022/01/19 10:45:55;;;;;;;13.10;6.30;;;;;;;2.66;85.32;100283.73;103504;1300;24271;-25
2022/01/19 10:48:28;;;;;;;16.40;7.40;;;;;;;2.75;85.26;100278.17;103579;1300;22974;-29
2022/01/19 10:50:54;;;;;;;11.20;6.00;;;;;;;3.04;82.60;100271.40;103533;1300;24162;-25
2022/01/19 10:53:20;;;;;;;15.20;6.50;;;;;;;2.93;83.38;100265.61;103452;1300;24219;-29
2022/01/19 10:55:45;;;;;;;15.40;7.20;;;;;;;3.18;81.12;100268.84;103505;1300;24186;-29
2022/01/19 10:58:13;;;;;;;13.00;6.30;;;;;;;2.99;81.12;100258.07;103520;1302;24215;-26
2022/01/19 11:00:40;;;;;;;14.50;7.10;;;;;;;2.78;83.23;100251.94;103518;1302;24233;-31
2022/01/19 11:03:15;;;;;;;20.80;7.70;;;;;;;2.91;82.86;100241.90;103576;1300;24343;-27
2022/01/19 11:05:53;;;;;;;11.10;5.80;;;;;;;2.97;83.55;100230.98;103597;1300;24201;-31
2022/01/19 11:08:20;;;;;;;14.90;6.90;;;;;;;3.12;81.86;100224.39;103469;1300;24135;-31
2022/01/19 11:10:49;;;;;;;17.30;8.90;;;;;;;3.13;82.58;100221.14;103564;1302;24319;-25
2022/01/19 11:13:25;;;;;;;18.20;6.70;;;;;;;3.18;81.07;100220.89;103580;1300;24317;-25
2022/01/19 11:15:51;;;;;;;12.30;6.50;;;;;;;3.19;81.67;100215.11;103305;1302;24189;-24
2022/01/19 11:18:19;;;;;;;18.40;8.40;;;;;;;3.27;83.04;100208.65;103514;1300;24608;-27
2022/01/19 11:20:46;;;;;;;18.20;9.90;;;;;;;3.53;81.74;100203.53;103617;1300;23888;-29
2022/01/19 11:23:21;;;;;;;11.30;7.30;;;;;;;3.56;80.25;100197.79;103565;1300;24395;-27
2022/01/19 11:25:51;;;;;;;10.50;5.40;;;;;;;3.53;80.80;100193.14;103515;1302;22569;-29
2022/01/19 11:28:24;;;;;;;19.70;7.10;;;;;;;3.55;78.87;100186.96;103527;1302;24422;-25
2022/01/19 11:30:50;;;;;;;11.00;6.70;;;;;;;3.51;79.00;100179.34;103524;1300;22795;-25
2022/01/19 11:33:24;;;;;;;13.60;6.70;;;;;;;3.44;78.90;100173.02;103544;1301;22563;-25
2022/01/19 11:35:54;;;;;;;15.50;5.90;;;;;;;3.47;78.41;100167.07;103551;1302;24286;-25
2022/01/19 11:38:26;;;;;;;20.20;12.90;;;;;;;3.83;80.29;100163.20;103590;1300;24197;-27
2022/01/19 11:40:52;;;;;;;12.10;6.40;;;;;;;4.62;78.97;100153.19;103500;1300;24416;-26
2022/01/19 11:43:21;;;;;;;12.70;8.20;;;;;;;5.17;77.16;100138.81;103441;1302;24225;-27
2022/01/19 11:45:47;;;;;;;22.10;10.30;;;;;;;5.78;77.60;100130.27;103555;1302;24399;-25
2022/01/19 11:48:15;;;;;;;11.90;6.10;;;;;;;6.39;78.02;100120.75;103438;1303;22512;-29
2022/01/19 11:50:41;;;;;;;17.40;6.70;;;;;;;6.79;71.71;100114.84;103542;1302;25349;-30
2022/01/19 11:53:10;;;;;;;13.60;5.60;;;;;;;6.85;71.45;100109.91;103473;1302;24287;-29
2022/01/19 11:55:36;;;;;;;11.10;4.90;;;;;;;6.68;68.43;100100.73;103555;1300;24231;-25
2022/01/19 11:58:09;;;;;;;9.20;4.30;;;;;;;6.49;68.22;100101.94;103434;1302;24301;-29
2022/01/19 12:00:35;;;;;;;13.30;5.70;;;;;;;6.20;67.95;100101.30;103553;1302;22510;-29
2022/01/19 12:03:15;;;;;;;11.90;5.30;;;;;;;5.99;68.07;100093.14;103542;1300;24217;-25
2022/01/19 12:05:41;;;;;;;8.70;4.50;;;;;;;5.89;68.23;100084.20;103504;1300;24222;-29
2022/01/19 12:08:28;;;;;;;13.80;6.80;;;;;;;5.79;69.25;100082.63;103502;1303;24155;-25
2022/01/19 12:10:57;;;;;;;8.70;4.10;;;;;;;6.01;69.83;100075.26;103193;1300;565703;-27
2022/01/19 12:16:02;;;;;;;14.40;6.20;;;;;;;6.19;66.68;100066.88;103594;1300;24444;-29
2022/01/19 12:18:35;;;;;;;16.30;6.70;;;;;;;6.09;66.95;100064.71;103428;1300;24257;-25
2022/01/19 12:21:01;;;;;;;15.60;5.90;;;;;;;6.10;67.34;100064.76;103511;1300;24225;-31
2022/01/19 12:23:28;;;;;;;14.20;6.30;;;;;;;6.15;67.33;100053.58;103501;1302;24229;-30
2022/01/19 12:25:54;;;;;;;17.70;7.30;;;;;;;6.22;68.24;100050.90;103603;1300;24185;-25
2022/01/19 12:28:27;;;;;;;12.10;5.40;;;;;;;6.39;67.71;100048.86;103494;1302;24148;-26
2022/01/19 12:30:53;;;;;;;14.00;5.40;;;;;;;6.45;67.35;100045.38;103546;1300;26174;-30
2022/01/19 12:33:19;;;;;;;12.80;5.00;;;;;;;6.61;65.89;100037.79;103507;1300;24213;-25
2022/01/19 12:35:45;;;;;;;16.60;5.50;;;;;;;6.51;65.54;100037.33;103547;1300;24270;-25
2022/01/19 12:38:18;;;;;;;13.40;5.00;;;;;;;6.43;65.45;100032.29;103518;1301;24242;-25
2022/01/19 12:40:48;;;;;;;11.40;4.90;;;;;;;6.57;65.39;100023.20;103577;1300;24516;-25
2022/01/19 12:43:21;;;;;;;19.00;6.20;;;;;;;6.69;64.46;100021.66;103450;1302;24267;-25
2022/01/19 12:45:49;;;;;;;14.40;6.20;;;;;;;6.76;65.48;100017.34;103611;1300;22648;-26